createdAt,value
2018-08-13T00:00:48.254Z,90.90
2018-08-13T00:03:16.216Z,91.00
2018-08-13T00:05:43.538Z,90.90
2018-08-13T00:08:10.862Z,91.40
2018-08-13T00:10:38.133Z,91.40
2018-08-13T00:13:05.689Z,91.50
2018-08-13T00:15:33.082Z,91.50
2018-08-13T00:18:00.350Z,91.60
2018-08-13T00:20:27.683Z,91.30
2018-08-13T00:22:55.094Z,91.50
2018-08-13T00:25:22.503Z,91.70
2018-08-13T00:27:49.769Z,91.30
2018-08-13T00:30:17.089Z,91.40
2018-08-13T00:32:44.724Z,91.00
2018-08-13T00:35:12.141Z,91.30
2018-08-13T00:37:39.442Z,91.20
2018-08-13T00:40:08.710Z,91.10
2018-08-13T00:42:36.037Z,91.20
2018-08-13T00:45:03.948Z,91.70
2018-08-13T00:47:31.285Z,91.30
2018-08-13T00:49:58.665Z,91.70
2018-08-13T00:52:26.021Z,91.40
2018-08-13T00:54:53.333Z,91.70
2018-08-13T00:57:20.658Z,91.70
2018-08-13T00:59:47.950Z,92.00
2018-08-13T01:02:15.302Z,92.10
2018-08-13T01:04:42.636Z,92.20
2018-08-13T01:07:09.978Z,91.80
2018-08-13T01:09:37.321Z,92.20
2018-08-13T01:12:04.666Z,91.80
2018-08-13T01:14:32.027Z,91.60
2018-08-13T01:16:59.338Z,91.40
2018-08-13T01:19:26.677Z,91.70
2018-08-13T01:21:53.990Z,91.90
2018-08-13T01:24:21.279Z,91.50
2018-08-13T01:26:48.585Z,91.90
2018-08-13T01:29:15.848Z,91.80
2018-08-13T01:31:43.244Z,91.70
2018-08-13T01:34:10.609Z,92.00
2018-08-13T01:36:37.888Z,92.20
2018-08-13T01:39:07.144Z,92.40
2018-08-13T01:41:34.419Z,92.60
2018-08-13T01:44:01.712Z,92.30
2018-08-13T01:46:28.992Z,92.30
2018-08-13T01:48:56.270Z,92.50
2018-08-13T01:51:23.537Z,91.40
2018-08-13T01:53:50.840Z,91.30
2018-08-13T01:56:18.129Z,92.10
2018-08-13T01:58:45.533Z,92.20
2018-08-13T02:01:12.878Z,92.10
2018-08-13T02:03:40.162Z,92.40
2018-08-13T02:06:07.513Z,92.60
2018-08-13T02:08:34.808Z,92.90
2018-08-13T02:11:02.149Z,92.20
2018-08-13T02:13:29.504Z,91.80
2018-08-13T02:15:56.845Z,92.20
2018-08-13T02:18:24.125Z,92.20
2018-08-13T02:20:51.428Z,91.90
2018-08-13T02:23:18.741Z,92.40
2018-08-13T02:25:46.065Z,92.60
2018-08-13T02:28:13.361Z,92.80
2018-08-13T02:30:40.686Z,92.70
2018-08-13T02:33:08.029Z,92.40
2018-08-13T02:35:35.380Z,92.20
2018-08-13T02:38:02.729Z,92.20
2018-08-13T02:40:30.065Z,92.30
2018-08-13T02:42:57.391Z,92.40
2018-08-13T02:45:24.743Z,92.80
2018-08-13T02:47:52.025Z,92.70
2018-08-13T02:50:19.313Z,92.90
2018-08-13T02:52:46.596Z,93.00
2018-08-13T02:55:13.885Z,92.90
2018-08-13T02:57:41.148Z,93.10
2018-08-13T03:00:09.777Z,93.20
2018-08-13T03:02:37.523Z,93.00
2018-08-13T03:05:06.437Z,93.20
2018-08-13T03:07:33.761Z,93.20
2018-08-13T03:10:01.096Z,93.20
2018-08-13T03:12:28.392Z,92.80
2018-08-13T03:14:55.684Z,93.10
2018-08-13T03:17:27.466Z,93.10
2018-08-13T03:19:54.768Z,92.90
2018-08-13T03:22:22.042Z,92.50
2018-08-13T03:24:49.309Z,92.40
2018-08-13T03:27:16.625Z,92.80
2018-08-13T03:29:43.984Z,92.60
2018-08-13T03:32:11.298Z,92.70
2018-08-13T03:34:38.622Z,92.80
2018-08-13T03:37:05.931Z,93.00
2018-08-13T03:39:33.287Z,92.60
2018-08-13T03:42:00.842Z,92.50
2018-08-13T03:44:28.164Z,92.60
2018-08-13T03:46:55.512Z,92.70
2018-08-13T03:49:22.761Z,92.60
2018-08-13T03:51:50.092Z,92.30
2018-08-13T03:54:17.415Z,92.30
2018-08-13T03:56:44.733Z,92.30
2018-08-13T03:59:12.026Z,92.30
2018-08-13T04:01:39.406Z,92.30
2018-08-13T04:04:06.677Z,92.60
2018-08-13T04:06:33.985Z,92.40
2018-08-13T04:09:01.286Z,92.30
2018-08-13T04:11:28.605Z,92.60
2018-08-13T04:13:55.872Z,92.70
2018-08-13T04:16:23.168Z,92.70
2018-08-13T04:18:50.453Z,92.60
2018-08-13T04:21:17.748Z,92.60
2018-08-13T04:23:45.067Z,92.70
2018-08-13T04:26:12.378Z,92.70
2018-08-13T04:28:39.704Z,92.60
2018-08-13T04:31:07.004Z,92.90
2018-08-13T04:33:34.258Z,92.90
2018-08-13T04:36:01.560Z,93.40
2018-08-13T04:38:28.898Z,93.90
2018-08-13T04:40:56.176Z,93.90
2018-08-13T04:43:23.505Z,93.90
2018-08-13T04:45:50.788Z,94.20
2018-08-13T04:48:18.141Z,93.70
2018-08-13T04:50:45.417Z,93.60
2018-08-13T04:53:12.773Z,93.50
2018-08-13T04:55:40.112Z,93.40
2018-08-13T04:58:07.397Z,93.10
2018-08-13T05:00:34.705Z,93.40
2018-08-13T05:03:01.980Z,92.90
2018-08-13T05:05:29.257Z,93.20
2018-08-13T05:07:56.545Z,93.40
2018-08-13T05:10:23.796Z,92.20
2018-08-13T05:12:51.154Z,91.20
2018-08-13T05:15:18.389Z,90.10
2018-08-13T05:17:45.696Z,86.90
2018-08-13T05:20:13.015Z,85.30
2018-08-13T05:22:40.288Z,84.80
2018-08-13T05:25:08.756Z,83.70
2018-08-13T05:27:36.060Z,82.70
2018-08-13T05:30:04.786Z,84.80
2018-08-13T05:32:32.049Z,88.10
2018-08-13T05:34:59.364Z,90.40
2018-08-13T05:37:26.692Z,91.00
2018-08-13T05:39:54.025Z,91.90
2018-08-13T05:42:21.346Z,92.20
2018-08-13T05:44:48.622Z,92.60
2018-08-13T05:47:15.912Z,92.80
2018-08-13T05:49:43.243Z,93.10
2018-08-13T05:52:10.525Z,93.10
2018-08-13T05:54:37.804Z,93.40
2018-08-13T05:57:05.088Z,93.60
2018-08-13T05:59:32.369Z,93.70
2018-08-13T06:01:59.661Z,93.70
2018-08-13T06:04:26.956Z,93.90
2018-08-13T06:06:54.228Z,93.60
2018-08-13T06:09:21.532Z,93.60
2018-08-13T06:11:48.833Z,93.60
2018-08-13T06:14:16.196Z,93.60
2018-08-13T06:16:43.850Z,93.70
2018-08-13T06:19:11.228Z,93.90
2018-08-13T06:21:38.614Z,93.80
2018-08-13T06:24:05.965Z,93.50
2018-08-13T06:26:33.269Z,93.80
2018-08-13T06:29:00.600Z,94.00
2018-08-13T06:31:27.901Z,94.20
2018-08-13T06:33:55.263Z,94.20
2018-08-13T06:36:22.635Z,94.10
2018-08-13T06:38:49.908Z,94.00
2018-08-13T06:41:17.269Z,93.90
2018-08-13T06:43:44.598Z,94.00
2018-08-13T06:46:11.925Z,94.00
2018-08-13T06:48:39.273Z,94.30
2018-08-13T06:51:06.580Z,94.40
2018-08-13T06:53:34.744Z,94.50
2018-08-13T06:56:02.006Z,94.70
2018-08-13T06:58:29.359Z,94.70
2018-08-13T07:00:56.626Z,94.80
2018-08-13T07:03:23.956Z,94.90
2018-08-13T07:05:51.228Z,95.30
2018-08-13T07:08:18.511Z,95.20
2018-08-13T07:10:45.824Z,95.20
2018-08-13T07:13:13.147Z,95.20
2018-08-13T07:15:40.529Z,95.30
2018-08-13T07:18:07.852Z,95.40
2018-08-13T07:20:35.160Z,95.70
2018-08-13T07:23:02.465Z,96.10
2018-08-13T07:25:29.789Z,95.70
2018-08-13T07:27:57.114Z,95.70
2018-08-13T07:30:24.393Z,95.70
2018-08-13T07:32:51.688Z,95.80
2018-08-13T07:35:19.027Z,95.80
2018-08-13T07:37:46.341Z,95.90
2018-08-13T07:40:15.126Z,95.90
2018-08-13T07:42:42.722Z,96.00
2018-08-13T07:45:10.033Z,96.10
2018-08-13T07:47:37.416Z,96.00
2018-08-13T07:50:05.973Z,96.00
2018-08-13T07:52:33.308Z,95.90
2018-08-13T07:55:00.632Z,96.00
2018-08-13T07:57:27.909Z,95.90
2018-08-13T07:59:55.191Z,96.10
2018-08-13T08:02:22.468Z,95.90
2018-08-13T08:04:49.817Z,95.70
2018-08-13T08:07:17.161Z,95.70
2018-08-13T08:09:44.467Z,95.70
2018-08-13T08:12:11.787Z,95.50
2018-08-13T08:14:39.316Z,95.40
2018-08-13T08:17:06.620Z,95.40
2018-08-13T08:19:33.940Z,95.20
2018-08-13T08:22:01.245Z,95.00
2018-08-13T08:24:28.549Z,94.80
2018-08-13T08:26:55.848Z,94.40
2018-08-13T08:29:23.166Z,94.30
2018-08-13T08:31:50.404Z,94.30
2018-08-13T08:34:17.739Z,94.20
2018-08-13T08:36:45.104Z,94.20
2018-08-13T08:39:13.755Z,94.30
2018-08-13T08:41:41.449Z,94.20
2018-08-13T08:44:09.449Z,94.20
2018-08-13T08:46:36.811Z,94.50
2018-08-13T08:49:04.176Z,94.50
2018-08-13T08:51:31.476Z,94.80
2018-08-13T08:53:58.841Z,95.00
2018-08-13T08:56:26.217Z,95.50
2018-08-13T08:58:53.541Z,95.90
2018-08-13T09:01:20.963Z,96.40
2018-08-13T09:03:48.232Z,97.00
2018-08-13T09:06:15.520Z,97.40
2018-08-13T09:08:42.843Z,97.70
2018-08-13T09:11:10.165Z,98.10
2018-08-13T09:13:37.769Z,98.10
2018-08-13T09:16:05.084Z,98.20
2018-08-13T09:18:43.861Z,98.80
2018-08-13T09:21:22.537Z,99.10
2018-08-13T09:24:01.440Z,99.50
2018-08-13T09:27:43.719Z,99.40
2018-08-13T09:30:22.484Z,99.90
2018-08-13T09:33:01.306Z,99.90
2018-08-13T09:35:32.521Z,99.90
2018-08-13T09:37:59.845Z,99.90
2018-08-13T09:40:28.233Z,99.90
2018-08-13T09:42:55.691Z,99.90
2018-08-13T09:45:23.449Z,99.90
2018-08-13T09:47:50.784Z,99.90
2018-08-13T09:50:18.907Z,99.90
2018-08-13T09:52:46.860Z,99.90
2018-08-13T09:55:14.950Z,99.90
2018-08-13T09:57:43.293Z,99.90
2018-08-13T10:00:17.228Z,99.90
2018-08-13T10:02:45.513Z,99.90
2018-08-13T10:05:12.925Z,99.90
2018-08-13T10:07:40.539Z,99.90
2018-08-13T10:10:08.781Z,99.90
2018-08-13T10:12:36.243Z,99.90
2018-08-13T10:15:04.824Z,99.90
2018-08-13T10:17:32.229Z,99.90
2018-08-13T10:19:59.505Z,99.90
2018-08-13T10:22:26.810Z,99.90
2018-08-13T10:24:54.073Z,99.90
2018-08-13T10:27:21.407Z,99.90
2018-08-13T10:29:48.768Z,99.90
2018-08-13T10:32:16.091Z,99.90
2018-08-13T10:34:43.366Z,99.90
2018-08-13T10:37:10.644Z,99.90
2018-08-13T10:39:37.924Z,99.90
2018-08-13T10:42:05.437Z,99.90
2018-08-13T10:44:32.749Z,99.90
2018-08-13T10:47:00.094Z,99.90
2018-08-13T10:49:27.441Z,99.90
2018-08-13T10:51:54.708Z,99.90
2018-08-13T10:54:22.148Z,99.90
2018-08-13T10:56:49.420Z,99.90
2018-08-13T10:59:16.724Z,99.90
2018-08-13T11:01:44.090Z,99.90
2018-08-13T11:04:11.465Z,99.90
2018-08-13T11:06:38.773Z,99.90
2018-08-13T11:09:07.735Z,99.90
2018-08-13T11:11:35.204Z,99.90
2018-08-13T11:14:02.640Z,99.90
2018-08-13T11:16:29.945Z,99.90
2018-08-13T11:18:57.245Z,99.90
2018-08-13T11:21:24.496Z,99.90
2018-08-13T11:23:51.967Z,99.90
2018-08-13T11:26:19.217Z,99.90
2018-08-13T11:28:46.649Z,99.90
2018-08-13T11:31:13.990Z,99.90
2018-08-13T11:33:41.289Z,99.90
2018-08-13T11:36:08.553Z,99.90
2018-08-13T11:38:35.841Z,99.90
2018-08-13T11:41:03.197Z,99.90
2018-08-13T11:43:30.525Z,99.90
2018-08-13T11:45:57.842Z,99.90
2018-08-13T11:48:25.160Z,99.90
2018-08-13T11:50:52.423Z,99.90
2018-08-13T11:53:19.828Z,99.90
2018-08-13T11:55:47.168Z,99.90
2018-08-13T11:58:14.557Z,99.90
2018-08-13T12:00:41.862Z,99.90
2018-08-13T12:03:09.134Z,99.90
2018-08-13T12:05:36.449Z,99.90
2018-08-13T12:08:03.736Z,99.90
2018-08-13T12:10:31.109Z,99.90
2018-08-13T12:12:58.368Z,99.90
2018-08-13T12:15:25.709Z,99.90
2018-08-13T12:17:52.977Z,99.90
2018-08-13T12:20:21.101Z,99.90
2018-08-13T12:22:48.437Z,99.90
2018-08-13T12:25:20.724Z,99.90
2018-08-13T12:27:48.030Z,99.90
2018-08-13T12:30:15.429Z,99.90
2018-08-13T12:32:42.840Z,99.90
2018-08-13T12:35:10.169Z,99.90
2018-08-13T12:37:37.456Z,99.90
2018-08-13T12:40:06.884Z,99.90
2018-08-13T12:42:34.263Z,99.90
2018-08-13T12:45:01.660Z,99.90
2018-08-13T12:47:29.113Z,99.90
2018-08-13T12:49:56.669Z,99.90
2018-08-13T12:52:24.103Z,99.90
2018-08-13T12:54:51.404Z,99.90
2018-08-13T12:57:18.698Z,99.90
2018-08-13T12:59:46.056Z,99.90
2018-08-13T13:02:13.387Z,99.90
2018-08-13T13:04:40.754Z,99.90
2018-08-13T13:07:08.158Z,99.90
2018-08-13T13:09:35.531Z,99.90
2018-08-13T13:12:02.844Z,99.90
2018-08-13T13:14:30.184Z,99.90
2018-08-13T13:16:57.464Z,99.90
2018-08-13T13:19:24.804Z,99.90
2018-08-13T13:21:52.077Z,99.90
2018-08-13T13:24:19.409Z,99.90
2018-08-13T13:26:46.758Z,99.90
2018-08-13T13:29:14.172Z,99.90
2018-08-13T13:31:41.453Z,99.90
2018-08-13T13:34:08.785Z,99.90
2018-08-13T13:36:36.090Z,99.90
2018-08-13T13:39:05.866Z,99.90
2018-08-13T13:41:33.225Z,99.90
2018-08-13T13:44:00.576Z,99.90
2018-08-13T13:46:27.940Z,99.90
2018-08-13T13:48:55.225Z,99.90
2018-08-13T13:51:22.646Z,99.90
2018-08-13T13:53:50.022Z,99.90
2018-08-13T13:56:17.340Z,99.90
2018-08-13T13:58:44.705Z,99.90
2018-08-13T14:01:12.145Z,99.90
2018-08-13T14:03:39.468Z,99.90
2018-08-13T14:06:06.910Z,99.90
2018-08-13T14:08:34.202Z,99.90
2018-08-13T14:11:01.621Z,99.90
2018-08-13T14:13:28.922Z,99.90
2018-08-13T14:15:56.284Z,99.90
2018-08-13T14:18:23.721Z,99.90
2018-08-13T14:20:51.044Z,99.90
2018-08-13T14:23:18.408Z,99.90
2018-08-13T14:25:45.753Z,99.90
2018-08-13T14:28:13.098Z,99.90
2018-08-13T14:30:40.440Z,99.90
2018-08-13T14:33:07.836Z,99.90
2018-08-13T14:35:35.232Z,99.90
2018-08-13T14:38:02.555Z,99.90
2018-08-13T14:40:29.863Z,99.90
2018-08-13T14:42:57.253Z,99.90
2018-08-13T14:45:24.646Z,99.90
2018-08-13T14:47:52.590Z,99.90
2018-08-13T14:50:19.957Z,99.90
2018-08-13T14:52:47.964Z,99.90
2018-08-13T14:55:18.689Z,99.90
2018-08-13T14:57:46.210Z,99.90
2018-08-13T15:00:24.607Z,99.90
2018-08-13T15:02:52.636Z,99.90
2018-08-13T15:05:20.209Z,99.90
2018-08-13T15:07:47.606Z,99.90
2018-08-13T15:10:20.352Z,99.90
2018-08-13T15:12:47.800Z,99.90
2018-08-13T15:15:15.133Z,99.90
2018-08-13T15:17:42.440Z,99.90
2018-08-13T15:20:14.839Z,99.90
2018-08-13T15:22:42.130Z,99.90
2018-08-13T15:25:09.494Z,99.90
2018-08-13T15:27:37.134Z,99.90
2018-08-13T15:30:07.020Z,99.90
2018-08-13T15:32:34.391Z,99.90
2018-08-13T15:35:01.653Z,99.90
2018-08-13T15:37:28.965Z,99.90
2018-08-13T15:39:56.384Z,99.90
2018-08-13T15:42:23.757Z,99.90
2018-08-13T15:44:51.107Z,99.90
2018-08-13T15:47:18.474Z,99.90
2018-08-13T15:49:45.941Z,99.90
2018-08-13T15:52:13.237Z,99.90
2018-08-13T15:54:40.580Z,99.90
2018-08-13T15:57:08.077Z,99.90
2018-08-13T15:59:35.433Z,99.90
2018-08-13T16:02:02.865Z,99.90
2018-08-13T16:04:30.292Z,99.90
2018-08-13T16:06:57.636Z,99.90
2018-08-13T16:09:25.052Z,99.90
2018-08-13T16:11:52.549Z,99.90
2018-08-13T16:14:19.905Z,99.90
2018-08-13T16:16:47.395Z,99.90
2018-08-13T16:19:14.826Z,99.90
2018-08-13T16:21:42.188Z,99.90
2018-08-13T16:24:09.518Z,99.90
2018-08-13T16:26:37.109Z,99.90
2018-08-13T16:29:04.753Z,99.90
2018-08-13T16:31:32.250Z,99.90
2018-08-13T16:33:59.637Z,99.90
2018-08-13T16:36:26.987Z,99.90
2018-08-13T16:38:54.373Z,99.90
2018-08-13T16:41:21.700Z,99.90
2018-08-13T16:43:49.074Z,99.90
2018-08-13T16:46:16.480Z,99.90
2018-08-13T16:48:43.876Z,99.90
2018-08-13T16:51:11.237Z,99.90
2018-08-13T16:53:38.585Z,99.90
2018-08-13T16:56:06.009Z,99.90
2018-08-13T16:58:33.359Z,99.90
2018-08-13T17:01:00.692Z,99.90
2018-08-13T17:03:27.977Z,99.90
2018-08-13T17:05:55.284Z,99.90
2018-08-13T17:08:23.236Z,99.90
2018-08-13T17:10:50.544Z,99.90
2018-08-13T17:13:17.888Z,99.90
2018-08-13T17:15:45.262Z,99.90
2018-08-13T17:18:12.641Z,99.90
2018-08-13T17:20:40.838Z,99.90
2018-08-13T17:23:08.184Z,99.90
2018-08-13T17:25:35.555Z,99.90
2018-08-13T17:28:02.968Z,99.90
2018-08-13T17:30:30.284Z,99.90
2018-08-13T17:32:58.882Z,99.90
2018-08-13T17:35:30.779Z,99.90
2018-08-13T17:37:58.585Z,99.90
2018-08-13T17:40:26.177Z,99.90
2018-08-13T17:42:54.026Z,99.90
2018-08-13T17:45:21.477Z,99.90
2018-08-13T17:47:48.784Z,99.90
2018-08-13T17:50:18.489Z,99.90
2018-08-13T17:52:45.868Z,99.90
2018-08-13T17:55:13.779Z,99.90
2018-08-13T17:57:41.669Z,99.90
2018-08-13T18:00:11.953Z,99.90
2018-08-13T18:02:39.263Z,99.90
2018-08-13T18:05:09.087Z,99.90
2018-08-13T18:07:36.435Z,99.90
2018-08-13T18:10:05.881Z,99.90
2018-08-13T18:12:33.217Z,99.90
2018-08-13T18:15:00.653Z,99.90
2018-08-13T18:17:27.945Z,99.90
2018-08-13T18:19:55.242Z,99.90
2018-08-13T18:22:22.529Z,99.90
2018-08-13T18:24:49.816Z,99.90
2018-08-13T18:27:17.113Z,99.90
2018-08-13T18:29:44.357Z,99.90
2018-08-13T18:32:11.824Z,99.90
2018-08-13T18:34:39.100Z,99.90
2018-08-13T18:37:06.461Z,99.90
2018-08-13T18:39:33.794Z,99.90
2018-08-13T18:42:01.092Z,99.90
2018-08-13T18:44:28.406Z,99.90
2018-08-13T18:46:55.711Z,99.90
2018-08-13T18:49:23.005Z,99.90
2018-08-13T18:51:50.308Z,99.90
2018-08-13T18:54:17.576Z,99.90
2018-08-13T18:56:44.929Z,99.90
2018-08-13T18:59:12.238Z,99.90
2018-08-13T19:01:39.603Z,99.90
2018-08-13T19:04:07.217Z,99.90
2018-08-13T19:06:34.501Z,99.90
2018-08-13T19:09:01.880Z,99.90
2018-08-13T19:11:29.201Z,99.90
2018-08-13T19:13:56.508Z,99.90
2018-08-13T19:16:23.788Z,99.90
2018-08-13T19:18:51.111Z,99.90
2018-08-13T19:21:18.395Z,99.90
2018-08-13T19:23:45.673Z,99.90
2018-08-13T19:26:13.064Z,99.90
2018-08-13T19:28:40.342Z,99.90
2018-08-13T19:31:07.653Z,99.90
2018-08-13T19:33:34.943Z,99.90
2018-08-13T19:36:02.249Z,99.90
2018-08-13T19:38:29.520Z,99.90
2018-08-13T19:40:56.854Z,99.90
2018-08-13T19:43:24.135Z,99.90
2018-08-13T19:45:51.454Z,99.90
2018-08-13T19:48:18.776Z,99.90
2018-08-13T19:50:46.081Z,99.90
2018-08-13T19:53:13.372Z,99.90
2018-08-13T19:55:40.690Z,99.90
2018-08-13T19:58:07.949Z,99.90
2018-08-13T20:00:35.231Z,99.90
2018-08-13T20:03:02.535Z,99.90
2018-08-13T20:05:29.816Z,99.90
2018-08-13T20:07:57.141Z,99.90
2018-08-13T20:10:24.511Z,99.90
2018-08-13T20:12:51.969Z,99.90
2018-08-13T20:15:19.280Z,99.90
2018-08-13T20:17:46.610Z,99.90
2018-08-13T20:20:18.251Z,99.90
2018-08-13T20:22:46.296Z,99.90
2018-08-13T20:25:14.903Z,99.90
2018-08-13T20:27:42.768Z,99.90
2018-08-13T20:30:15.922Z,99.90
2018-08-13T20:32:44.593Z,99.90
2018-08-13T20:35:11.910Z,99.90
2018-08-13T20:37:39.308Z,99.90
2018-08-13T20:40:08.661Z,99.90
2018-08-13T20:42:37.037Z,99.90
2018-08-13T20:45:06.467Z,99.90
2018-08-13T20:47:33.773Z,99.90
2018-08-13T20:50:01.078Z,99.90
2018-08-13T20:52:28.501Z,99.90
2018-08-13T20:54:55.771Z,99.90
2018-08-13T20:57:23.084Z,99.90
2018-08-13T20:59:50.345Z,99.90
2018-08-13T21:02:17.601Z,99.90
2018-08-13T21:04:44.900Z,99.90
2018-08-13T21:07:12.216Z,99.90
2018-08-13T21:09:39.578Z,99.90
2018-08-13T21:12:06.908Z,99.90
2018-08-13T21:14:34.198Z,99.90
2018-08-13T21:17:01.515Z,99.90
2018-08-13T21:19:28.784Z,99.90
2018-08-13T21:21:56.100Z,99.90
2018-08-13T21:24:23.387Z,99.90
2018-08-13T21:26:50.716Z,99.90
2018-08-13T21:29:18.001Z,99.90
2018-08-13T21:31:45.305Z,99.90
2018-08-13T21:34:12.568Z,99.90
2018-08-13T21:36:39.872Z,99.90
2018-08-13T21:39:09.112Z,99.90
2018-08-13T21:41:36.612Z,99.90
2018-08-13T21:44:04.573Z,99.90
2018-08-13T21:46:31.900Z,99.90
2018-08-13T21:48:59.176Z,99.90
2018-08-13T21:51:26.489Z,99.90
2018-08-13T21:53:53.736Z,99.90
2018-08-13T21:56:21.040Z,99.90
2018-08-13T21:58:48.352Z,99.90
2018-08-13T22:01:47.221Z,99.90
2018-08-13T22:04:16.003Z,99.90
2018-08-13T22:06:43.782Z,99.90
2018-08-13T22:09:11.265Z,99.90
2018-08-13T22:11:38.601Z,99.90
2018-08-13T22:14:06.542Z,99.90
2018-08-13T22:16:33.820Z,99.90
2018-08-13T22:19:01.137Z,99.90
2018-08-13T22:21:28.468Z,99.90
2018-08-13T22:24:07.206Z,99.90
2018-08-13T22:26:34.549Z,99.90
2018-08-13T22:29:01.855Z,99.90
2018-08-13T22:31:29.142Z,99.90
2018-08-13T22:33:56.378Z,99.90
2018-08-13T22:36:23.773Z,99.90
2018-08-13T22:38:51.057Z,99.90
2018-08-13T22:41:18.369Z,99.90
2018-08-13T22:43:45.661Z,99.90
2018-08-13T22:46:12.998Z,99.90
2018-08-13T22:48:40.316Z,99.90
2018-08-13T22:51:07.616Z,99.90
2018-08-13T22:53:35.141Z,99.90
2018-08-13T22:56:02.519Z,99.90
2018-08-13T22:58:29.860Z,99.90
2018-08-13T23:00:57.202Z,99.90
2018-08-13T23:03:24.512Z,99.90
2018-08-13T23:05:51.860Z,99.90
2018-08-13T23:08:19.360Z,99.90
2018-08-13T23:10:46.617Z,99.90
2018-08-13T23:13:15.408Z,99.90
2018-08-13T23:15:42.892Z,99.90
2018-08-13T23:18:10.244Z,99.90
2018-08-13T23:20:37.721Z,99.90
2018-08-13T23:23:05.127Z,99.90
2018-08-13T23:25:33.989Z,99.90
2018-08-13T23:28:02.605Z,99.90
2018-08-13T23:30:30.278Z,99.90
2018-08-13T23:32:58.441Z,99.90
2018-08-13T23:35:26.493Z,99.90
2018-08-13T23:37:54.012Z,99.90
2018-08-13T23:40:21.552Z,99.90
2018-08-13T23:42:48.871Z,99.90
2018-08-13T23:45:17.757Z,99.90
2018-08-13T23:47:45.069Z,99.90
2018-08-13T23:50:14.937Z,99.90
2018-08-13T23:52:42.314Z,99.90
2018-08-13T23:55:13.640Z,99.90
2018-08-13T23:57:40.957Z,99.90
